Meath Environmental Platform

Observations for Trim Market St

Time AQI Temp °C Hum % Pres Pa CO μg/m³ H₂S μg/m³ NO μg/m³ NO₂ μg/m³ O₃ μg/m³ SO₂ μg/m³ PM1 μg/m³ PM2.5 μg/m³ PM10 μg/m³
Thursday 13 August 2026
12:06 2 32.7 45 63,898 0 0 0.49 13.33 60.46 0 0.71 2.65 4.43
12:05 2 32.5 46 63,723 0 0 0.49 12.66 44.78 0 0.71 3.16 4.44
12:04 2 32.2 46 63,464 0.09 0 0.59 12.61 49.02 0 0.71 3.15 3.46
12:03 2 32.1 46 63,225 0 0 0.53 13.24 55.94 0 0.71 3.14 3.46
12:02 2 32 46 63,088 0 0 0.55 12.77 56.09 0 0 2.1 2.31
12:01 2 31.9 46 63,043 0.08 0 0.61 17.28 56.33 0 0.71 3.14 3.45
12:00 2 31.8 46 63,162 0.15 0 0.61 12.67 43.58 0 0.71 3.14 3.45
11:59 2 31.8 46 63,041 0 0 0.56 13.23 55.73 0 0.71 4.17 5.22
11:58 2 31.7 46 62,911 0 0 0.64 13.16 36.69 0 1.43 3.64 4.46
11:57 2 31.7 47 62,668 0 0 0.57 12.68 59.91 0 0.71 3.11 3.42
11:54 2 31.5 47 62,563 0 0 0.61 13.07 46.98 0 0 2.58 2.84
11:53 2 31.4 47 62,468 0 0 0.62 13.23 64.83 0 0.71 3.1 3.41
11:52 2 31.4 47 62,452 0 0 0.59 16.11 53.63 0 0 3.1 3.71
11:51 2 31.3 47 62,590 0 0 0.59 13.14 62.04 0 0.71 3.1 3.42
11:50 2 31.3 47 62,513 0 0 0.58 11.86 56.67 0 0 3.11 3.42
11:49 2 31.3 47 62,440 0 0 0.52 12.04 57.95 0 0.71 2.59 2.84
11:47 2 31.2 47 62,102 0 0 0.51 10.26 45.75 0 0.71 3.61 3.72
11:46 2 31.2 47 61,818 0 0 0.51 12.67 65.99 0 0 2.05 2.26
11:42 2 31.2 48 60,781 0 0 0.51 12.63 55.15 0 0.71 2.55 2.8
11:41 2 31.1 48 60,696 0 0 0.48 12.48 51.8 0 1.43 3.57 4.5